Time;durP1;ratioP1;P1;durP2;ratioP2;P2;SDS_P1;SDS_P2;PMS_P1;PMS_P2;Temp;Humidity;BMP_temperature;BMP_pressure;BME280_temperature;BME280_humidity;BME280_pressure;Samples;Min_cycle;Max_cycle;Signal;HPM_P1;HPM_P2
2022/06/11 00:01:24;;;;;;;10.73;7.10;;;;;;;17.60;72.82;102020.94;5044848;28;20499;-87
2022/06/11 00:03:54;;;;;;;10.90;7.18;;;;;;;17.55;74.03;102028.34;5046014;28;20036;-87
2022/06/11 00:06:20;;;;;;;12.95;7.50;;;;;;;17.58;73.68;102022.84;5042068;28;20394;-86
2022/06/11 00:08:46;;;;;;;11.70;7.40;;;;;;;17.52;73.63;102012.44;5049404;28;20088;-87
2022/06/11 00:11:12;;;;;;;8.95;6.35;;;;;;;17.49;73.62;102024.16;5047927;28;20041;-87
2022/06/11 00:13:38;;;;;;;9.48;6.40;;;;;;;17.37;73.08;102018.56;5043465;28;20029;-87
2022/06/11 00:16:05;;;;;;;9.95;6.45;;;;;;;17.37;72.44;102021.22;5043892;28;20350;-86
2022/06/11 00:18:32;;;;;;;15.02;6.60;;;;;;;17.38;73.74;102020.28;5043949;28;20028;-86
2022/06/11 00:20:58;;;;;;;9.85;6.85;;;;;;;17.37;73.87;102023.91;5043739;28;20086;-87
2022/06/11 00:23:24;;;;;;;10.57;6.22;;;;;;;17.40;72.98;102024.63;5047657;28;20416;-87
2022/06/11 00:25:49;;;;;;;9.88;5.32;;;;;;;17.37;72.26;102016.75;5051974;28;20023;-87
2022/06/11 00:28:15;;;;;;;6.45;5.18;;;;;;;17.40;73.14;102021.94;5045269;28;20033;-87
2022/06/11 00:30:40;;;;;;;10.02;5.20;;;;;;;17.41;72.94;102022.81;5046238;28;20380;-86
2022/06/11 00:33:06;;;;;;;9.77;5.80;;;;;;;17.42;72.81;102022.72;5041516;28;20476;-87
2022/06/11 00:35:33;;;;;;;8.48;5.57;;;;;;;17.41;73.11;102022.81;5047572;28;20033;-87
2022/06/11 00:37:59;;;;;;;6.88;4.95;;;;;;;17.41;72.89;102022.81;5044119;28;20581;-86
2022/06/11 00:40:26;;;;;;;8.93;5.15;;;;;;;17.32;73.07;102016.09;5047832;28;20545;-86
2022/06/11 00:42:52;;;;;;;6.72;4.68;;;;;;;17.25;73.18;102015.56;5047530;28;20453;-87
2022/06/11 00:45:17;;;;;;;10.50;5.55;;;;;;;17.26;73.31;102014.63;5045819;28;20068;-86
2022/06/11 00:47:47;;;;;;;8.23;5.07;;;;;;;17.22;72.40;102022.84;5066737;28;20528;-87
2022/06/11 00:50:31;;;;;;;8.48;5.63;;;;;;;17.24;72.68;102011.13;5072366;28;20290;-86
2022/06/11 00:52:58;;;;;;;10.57;5.60;;;;;;;17.10;73.72;102005.59;5066575;28;20043;-86
2022/06/11 00:55:34;;;;;;;5.72;5.10;;;;;;;17.03;73.59;102009.53;5062547;28;20480;-87
2022/06/11 00:58:03;;;;;;;7.22;5.35;;;;;;;16.98;73.88;102014.22;5059114;28;20434;-86
2022/06/11 01:00:41;;;;;;;8.05;5.72;;;;;;;16.98;73.88;102016.91;5066761;28;20024;-86
2022/06/11 01:03:08;;;;;;;6.07;4.65;;;;;;;16.89;72.71;102014.69;5065426;28;20043;-86
2022/06/11 01:05:37;;;;;;;8.00;5.30;;;;;;;16.80;73.77;102008.81;5066932;28;20035;-86
2022/06/11 01:08:30;;;;;;;9.18;5.40;;;;;;;16.79;74.25;102017.78;5068764;28;20032;-86
2022/06/11 01:11:10;;;;;;;7.90;6.13;;;;;;;16.80;74.01;102010.63;5064485;28;20021;-86
2022/06/11 01:13:38;;;;;;;8.38;5.60;;;;;;;16.76;74.56;102009.91;5066054;28;20032;-86
2022/06/11 01:16:27;;;;;;;9.60;5.47;;;;;;;16.77;73.88;102003.63;5067013;28;20082;-86
2022/06/11 01:19:25;;;;;;;7.80;5.45;;;;;;;16.76;74.45;102001.88;5067741;28;20396;-86
2022/06/11 01:21:50;;;;;;;6.93;4.97;;;;;;;16.75;74.48;102010.84;5065742;28;20031;-86
2022/06/11 01:24:26;;;;;;;8.03;5.40;;;;;;;16.70;74.76;102012.84;5067734;28;20369;-86
2022/06/11 01:27:16;;;;;;;8.10;5.80;;;;;;;16.74;74.71;102003.78;5066766;28;20653;-86
2022/06/11 01:29:54;;;;;;;8.10;4.95;;;;;;;16.72;74.17;102012.78;5061796;28;20119;-86
2022/06/11 01:32:39;;;;;;;9.43;5.45;;;;;;;16.78;74.41;102008.00;5066359;28;20024;-86
2022/06/11 01:35:17;;;;;;;11.45;6.13;;;;;;;16.75;75.25;102004.66;5067846;28;20086;-86
2022/06/11 01:38:03;;;;;;;9.55;5.50;;;;;;;16.78;75.33;102008.00;5063950;28;20055;-86
2022/06/11 01:40:45;;;;;;;7.32;5.35;;;;;;;16.75;74.60;102004.66;5067204;28;20040;-86
2022/06/11 01:43:31;;;;;;;7.50;5.43;;;;;;;16.80;74.77;102005.28;5058797;28;20056;-86
2022/06/11 01:46:00;;;;;;;8.30;4.72;;;;;;;16.69;75.60;102003.06;5061710;28;20032;-86
2022/06/11 01:48:28;;;;;;;10.05;5.20;;;;;;;16.65;75.55;101993.50;5063560;28;20368;-87
2022/06/11 01:51:16;;;;;;;7.10;5.35;;;;;;;16.71;75.25;102003.03;5059338;28;20108;-86
2022/06/11 01:53:59;;;;;;;8.25;5.38;;;;;;;16.68;75.46;101998.69;5064791;28;20032;-86
2022/06/11 01:56:35;;;;;;;9.85;6.03;;;;;;;16.67;76.58;101998.75;5066412;28;20364;-87
2022/06/11 01:59:19;;;;;;;9.95;5.30;;;;;;;16.69;75.42;101992.41;5063282;28;20486;-86
2022/06/11 02:02:11;;;;;;;8.02;5.28;;;;;;;16.76;75.65;102003.69;5067426;28;20031;-86
2022/06/11 02:04:43;;;;;;;;;;;;;;;16.94;73.54;102001.97;5067322;28;20031;-86
2022/06/11 02:07:18;;;;;;;6.88;4.85;;;;;;;16.83;75.09;102000.69;5067216;28;19920;-86
2022/06/11 02:09:58;;;;;;;8.68;5.50;;;;;;;16.80;75.20;101999.94;5061323;28;20035;-86
2022/06/11 02:12:33;;;;;;;7.20;5.22;;;;;;;16.75;75.97;102004.66;5054085;28;20087;-86
2022/06/11 02:15:16;;;;;;;5.88;4.60;;;;;;;16.71;74.44;101998.53;5064766;28;20032;-86
2022/06/11 02:17:45;;;;;;;7.68;4.50;;;;;;;16.68;75.68;101998.69;5081470;28;20016;-86
2022/06/11 02:20:20;;;;;;;6.47;4.90;;;;;;;16.67;75.39;101988.94;5058951;28;20068;-86
2022/06/11 02:22:58;;;;;;;9.05;4.75;;;;;;;16.65;75.66;101997.97;5065606;28;20016;-86
2022/06/11 02:25:28;;;;;;;8.10;4.53;;;;;;;16.64;76.27;102005.09;5063195;28;20032;-86
2022/06/11 02:27:57;;;;;;;6.78;4.80;;;;;;;16.56;75.52;101999.28;5060345;28;20081;-86
2022/06/11 02:30:26;;;;;;;6.97;4.72;;;;;;;16.56;75.92;101999.28;5061845;28;20119;-86
2022/06/11 02:32:52;;;;;;;4.88;4.22;;;;;;;16.56;75.91;102002.81;5055147;28;20032;-86
2022/06/11 02:35:46;;;;;;;5.32;4.50;;;;;;;16.56;75.76;102001.94;5061133;28;20090;-86
2022/06/11 02:38:15;;;;;;;7.28;4.78;;;;;;;16.51;75.74;102018.19;5065075;28;20031;-86
2022/06/11 02:40:45;;;;;;;10.35;5.03;;;;;;;16.45;76.07;102006.91;5055295;28;20484;-86
2022/06/11 02:43:10;;;;;;;8.27;4.68;;;;;;;16.43;75.74;102012.31;5063091;28;20033;-86
2022/06/11 02:45:36;;;;;;;7.90;4.70;;;;;;;16.35;75.66;102005.59;5058632;28;20382;-86
2022/06/11 02:48:01;;;;;;;6.05;4.65;;;;;;;16.39;75.79;102017.88;5066590;28;20812;-86
2022/06/11 02:50:30;;;;;;;6.53;4.50;;;;;;;16.37;76.00;102019.72;5062039;28;20081;-85
2022/06/11 02:52:57;;;;;;;7.22;4.78;;;;;;;16.37;75.49;102025.94;5064839;28;20085;-86
2022/06/11 02:55:23;;;;;;;4.80;4.13;;;;;;;16.33;75.70;102022.56;5066121;28;20053;-86
2022/06/11 02:57:49;;;;;;;5.28;4.75;;;;;;;16.31;75.61;102016.41;5058997;28;20376;-86
2022/06/11 03:00:19;;;;;;;6.63;4.60;;;;;;;16.33;75.64;102030.56;5056190;28;20239;-86
2022/06/11 03:02:47;;;;;;;7.28;4.72;;;;;;;16.34;75.31;102034.09;5066333;28;20024;-86
2022/06/11 03:05:13;;;;;;;6.72;4.63;;;;;;;16.28;75.90;102021.03;5061090;28;20507;-86
2022/06/11 03:07:39;;;;;;;9.30;4.32;;;;;;;16.30;75.64;102029.81;5064850;28;20033;-86
2022/06/11 03:10:05;;;;;;;7.30;4.85;;;;;;;16.27;75.86;102030.84;5066435;28;20442;-86
2022/06/11 03:12:30;;;;;;;7.10;4.75;;;;;;;16.21;75.64;102028.44;5067926;28;20130;-86
2022/06/11 03:14:55;;;;;;;8.82;4.60;;;;;;;16.22;75.50;102042.63;5061127;28;20039;-86
2022/06/11 03:17:21;;;;;;;6.60;4.82;;;;;;;16.17;75.80;102045.50;5059510;28;20448;-86
2022/06/11 03:19:47;;;;;;;5.70;4.93;;;;;;;16.20;75.92;102036.50;5065665;28;20036;-86
2022/06/11 03:22:13;;;;;;;6.30;4.70;;;;;;;16.23;75.92;102042.59;5078632;28;20024;-86
2022/06/11 03:24:38;;;;;;;7.72;4.80;;;;;;;16.35;75.82;102042.97;5068531;28;20024;-86
2022/06/11 03:27:04;;;;;;;6.30;4.10;;;;;;;16.41;75.52;102048.88;5066567;28;20028;-86
2022/06/11 03:29:30;;;;;;;9.13;5.07;;;;;;;16.45;75.89;102055.81;5065966;28;20120;-86
2022/06/11 03:31:55;;;;;;;9.75;4.80;;;;;;;16.51;75.57;102052.88;5067438;28;20458;-86
2022/06/11 03:34:21;;;;;;;7.05;4.65;;;;;;;16.57;75.29;102049.91;5065166;28;20031;-85
2022/06/11 03:36:47;;;;;;;6.35;5.07;;;;;;;16.60;75.61;102059.59;5071607;28;20480;-86
2022/06/11 03:39:15;;;;;;;8.40;5.35;;;;;;;16.64;75.24;102063.84;5069322;28;20124;-86
2022/06/11 03:41:41;;;;;;;6.53;4.50;;;;;;;16.66;75.69;102067.31;5061471;28;20032;-86
2022/06/11 03:44:06;;;;;;;7.38;4.75;;;;;;;16.64;75.65;102065.66;5043514;28;20035;-86
2022/06/11 03:46:32;;;;;;;8.80;4.80;;;;;;;16.69;75.58;102067.16;5059789;28;20491;-86
2022/06/11 03:48:57;;;;;;;6.22;4.85;;;;;;;16.74;75.25;102070.56;5063767;28;20475;-86
2022/06/11 03:51:23;;;;;;;7.10;4.95;;;;;;;16.75;75.34;102066.94;5064350;28;20052;-86
2022/06/11 03:53:49;;;;;;;7.78;5.53;;;;;;;16.74;75.38;102075.88;5069022;28;20158;-86
2022/06/11 03:56:16;;;;;;;7.70;5.30;;;;;;;16.74;75.58;102089.25;5071090;28;20054;-86
2022/06/11 03:58:44;;;;;;;6.93;5.15;;;;;;;16.77;75.56;102085.56;5068055;28;20532;-86
2022/06/11 04:01:16;;;;;;;7.75;5.40;;;;;;;16.79;75.30;102084.56;5055104;28;20464;-86
2022/06/11 04:03:44;;;;;;;;;;;;;;;17.04;73.61;102086.06;5064465;28;20636;-86
2022/06/11 04:06:10;;;;;;;7.60;5.50;;;;;;;16.92;75.02;102091.97;5068466;28;19936;-86
2022/06/11 04:08:36;;;;;;;9.63;5.57;;;;;;;16.82;74.99;102087.06;5068896;28;20431;-86
2022/06/11 04:11:03;;;;;;;7.03;5.65;;;;;;;16.78;74.52;102087.28;5066504;28;20108;-86
2022/06/11 04:13:30;;;;;;;5.13;4.55;;;;;;;16.77;75.26;102102.44;5069081;28;20033;-86
2022/06/11 04:15:58;;;;;;;8.82;5.20;;;;;;;16.80;74.73;102088.94;5062353;28;20086;-86
2022/06/11 04:18:37;;;;;;;7.50;4.70;;;;;;;16.87;74.44;102094.00;5066209;28;20479;-86
2022/06/11 04:21:06;;;;;;;6.68;4.90;;;;;;;16.87;74.83;102089.53;5067137;28;20032;-86
2022/06/11 04:23:31;;;;;;;5.82;4.57;;;;;;;16.92;74.24;102098.19;5056488;28;20033;-86
2022/06/11 04:26:05;;;;;;;6.03;4.60;;;;;;;16.99;74.44;102094.31;5066744;28;20029;-86
2022/06/11 04:28:31;;;;;;;8.30;4.80;;;;;;;17.04;74.28;102110.13;5075423;28;20081;-86
2022/06/11 04:30:59;;;;;;;8.60;4.53;;;;;;;17.05;73.50;102103.81;5060192;28;20115;-86
2022/06/11 04:33:25;;;;;;;4.63;3.95;;;;;;;17.08;73.19;102101.88;5063990;28;20087;-86
2022/06/11 04:35:51;;;;;;;8.15;4.30;;;;;;;17.14;73.28;102110.53;5069985;28;20031;-86
2022/06/11 04:38:17;;;;;;;6.38;3.80;;;;;;;17.14;73.15;102113.22;5065959;28;20032;-86
2022/06/11 04:40:43;;;;;;;7.55;4.20;;;;;;;17.14;73.07;102108.75;5062900;28;20024;-86
2022/06/11 04:43:08;;;;;;;5.95;3.80;;;;;;;17.23;72.52;102115.44;5068619;28;20054;-86
2022/06/11 04:45:34;;;;;;;8.63;3.95;;;;;;;17.23;72.69;102107.44;5066465;28;20028;-86
2022/06/11 04:47:59;;;;;;;9.30;4.45;;;;;;;17.25;72.83;102118.91;5058739;28;20063;-87
2022/06/11 04:50:24;;;;;;;6.32;3.95;;;;;;;17.26;72.74;102113.50;5074354;28;20107;-86
2022/06/11 04:52:50;;;;;;;10.27;3.88;;;;;;;17.27;71.37;102120.59;5065363;28;20059;-86
2022/06/11 04:55:16;;;;;;;6.78;4.22;;;;;;;17.31;72.04;102122.16;5064873;28;20040;-86
2022/06/11 04:57:43;;;;;;;5.10;3.70;;;;;;;17.37;71.39;102120.16;5067572;28;20032;-86
2022/06/11 05:00:10;;;;;;;9.65;4.50;;;;;;;17.38;71.92;102111.16;5062453;28;20068;-86
2022/06/11 05:02:35;;;;;;;4.78;3.55;;;;;;;17.40;71.12;102110.16;5062675;28;20024;-87
2022/06/11 05:05:01;;;;;;;7.00;3.88;;;;;;;17.44;69.84;102119.78;5066582;28;20086;-86
2022/06/11 05:07:26;;;;;;;7.90;3.67;;;;;;;17.44;69.56;102113.53;5065273;28;20031;-86
2022/06/11 05:09:51;;;;;;;6.30;3.90;;;;;;;17.51;68.89;102117.66;5068244;28;20408;-87
2022/06/11 05:12:17;;;;;;;7.10;3.47;;;;;;;17.57;69.16;102118.22;5065678;28;20082;-87
2022/06/11 05:14:42;;;;;;;6.20;3.40;;;;;;;17.58;67.29;102119.97;5063204;28;20024;-86
2022/06/11 05:17:08;;;;;;;7.47;4.07;;;;;;;17.59;67.27;102120.84;5063000;28;20020;-86
2022/06/11 05:19:33;;;;;;;13.02;3.22;;;;;;;17.65;66.96;102123.19;5063384;28;20036;-87
2022/06/11 05:21:59;;;;;;;8.82;3.08;;;;;;;17.77;66.30;102125.31;5062856;28;20032;-86
2022/06/11 05:24:25;;;;;;;9.30;3.45;;;;;;;17.81;66.82;102124.22;5063248;28;20036;-86
2022/06/11 05:26:54;;;;;;;9.32;3.55;;;;;;;17.82;65.85;102131.28;5063790;28;20123;-87
2022/06/11 05:29:52;;;;;;;10.25;3.42;;;;;;;17.94;66.51;102126.25;5064650;28;20392;-87
2022/06/11 05:32:22;;;;;;;8.23;3.20;;;;;;;17.92;65.32;102125.47;5055278;28;20066;-86
2022/06/11 05:34:48;;;;;;;10.80;3.05;;;;;;;17.85;65.62;102128.44;5065044;28;20403;-87
2022/06/11 05:37:14;;;;;;;8.13;2.97;;;;;;;17.81;65.49;102126.91;5062924;28;20025;-87
2022/06/11 05:39:41;;;;;;;8.52;3.10;;;;;;;17.81;64.89;102129.56;5061616;28;20032;-86
2022/06/11 05:42:07;;;;;;;11.20;3.53;;;;;;;17.87;64.89;102130.19;5066656;28;20123;-87
2022/06/11 05:44:32;;;;;;;8.77;3.75;;;;;;;17.95;63.86;102117.28;5070913;28;20024;-87
2022/06/11 05:46:58;;;;;;;7.97;3.17;;;;;;;18.05;63.73;102131.94;5063252;28;20056;-87
2022/06/11 05:49:32;;;;;;;9.65;3.08;;;;;;;18.06;64.05;102134.53;5065670;28;20100;-86
2022/06/11 05:52:01;;;;;;;11.55;3.40;;;;;;;17.99;65.24;102138.44;5071070;28;20090;-87
2022/06/11 05:54:31;;;;;;;7.32;3.45;;;;;;;17.99;63.51;102135.78;5068364;28;20042;-87
2022/06/11 05:56:57;;;;;;;7.85;3.35;;;;;;;18.06;63.22;102139.03;5063048;28;20025;-86
2022/06/11 05:59:26;;;;;;;10.88;3.00;;;;;;;18.07;61.57;102130.03;5060483;28;20031;-87
2022/06/11 06:01:53;;;;;;;10.68;3.38;;;;;;;18.01;61.87;102130.38;5073869;28;20017;-86
2022/06/11 06:04:18;;;;;;;14.65;3.65;;;;;;;18.18;61.57;102141.06;5061883;28;20059;-86
2022/06/11 06:06:44;;;;;;;8.52;3.00;;;;;;;18.25;62.01;102131.78;5064354;28;20496;-87
2022/06/11 06:09:09;;;;;;;11.65;2.83;;;;;;;18.23;59.82;102133.69;5066688;28;20108;-87
2022/06/11 06:11:35;;;;;;;9.18;2.85;;;;;;;18.34;61.23;102139.34;5059514;28;20020;-86
2022/06/11 06:14:00;;;;;;;12.02;3.30;;;;;;;18.51;59.66;102133.09;5060567;28;20488;-87
2022/06/11 06:16:29;;;;;;;11.10;3.10;;;;;;;18.64;59.09;102141.34;5067797;28;20528;-86
2022/06/11 06:18:55;;;;;;;7.30;2.53;;;;;;;18.79;57.38;102143.25;5058919;28;20036;-86
2022/06/11 06:21:25;;;;;;;17.77;3.10;;;;;;;18.78;57.93;102141.50;5065410;28;20108;-87
2022/06/11 06:23:51;;;;;;;9.75;2.92;;;;;;;18.76;57.38;102148.75;5063016;28;20047;-87
2022/06/11 06:26:16;;;;;;;9.10;3.05;;;;;;;18.76;58.10;102153.25;5063182;28;20595;-86
2022/06/11 06:28:42;;;;;;;11.57;3.30;;;;;;;18.73;58.72;102148.91;5064257;28;20107;-86
2022/06/11 06:31:09;;;;;;;13.07;2.92;;;;;;;18.85;58.53;102159.00;5061578;28;20082;-86
2022/06/11 06:33:34;;;;;;;15.35;3.53;;;;;;;19.02;58.35;102162.53;5067856;28;20391;-87
2022/06/11 06:36:03;;;;;;;10.57;3.72;;;;;;;18.98;61.12;102164.56;5064736;28;20031;-86
2022/06/11 06:38:28;;;;;;;11.38;3.17;;;;;;;19.21;57.10;102176.69;5065920;28;20025;-86
2022/06/11 06:40:54;;;;;;;9.32;2.65;;;;;;;19.32;56.95;102162.69;5064739;28;20063;-86
2022/06/11 06:43:23;;;;;;;14.68;3.60;;;;;;;19.43;57.17;102162.06;5065978;28;20016;-86
2022/06/11 06:45:49;;;;;;;10.98;3.78;;;;;;;19.52;56.67;102169.59;5063427;28;20033;-87
2022/06/11 06:48:15;;;;;;;11.00;3.67;;;;;;;19.65;56.47;102167.13;5065540;28;20118;-86
2022/06/11 06:50:40;;;;;;;11.88;3.53;;;;;;;19.78;55.73;102162.78;5070791;28;20032;-86
2022/06/11 06:53:06;;;;;;;10.07;3.38;;;;;;;19.83;56.09;102158.88;5068154;28;20032;-86
2022/06/11 06:55:32;;;;;;;14.80;3.33;;;;;;;19.83;56.44;102168.75;5063658;28;20567;-86
2022/06/11 06:57:58;;;;;;;10.68;3.38;;;;;;;19.75;56.12;102169.19;5058148;28;20024;-87
2022/06/11 07:00:23;;;;;;;11.95;3.40;;;;;;;19.82;57.09;102173.25;5064264;28;20032;-87
2022/06/11 07:02:49;;;;;;;12.00;3.72;;;;;;;19.82;56.78;102172.41;5067184;28;20033;-87
2022/06/11 07:05:16;;;;;;;9.05;2.92;;;;;;;19.88;57.46;102172.03;5078121;28;20029;-87
2022/06/11 07:07:41;;;;;;;11.77;3.22;;;;;;;20.01;57.44;102164.16;5068131;28;20048;-87
2022/06/11 07:10:08;;;;;;;15.02;3.72;;;;;;;20.10;55.31;102171.66;5066485;28;20101;-87
2022/06/11 07:12:34;;;;;;;14.50;3.75;;;;;;;20.15;55.09;102153.44;5067423;28;20060;-87
2022/06/11 07:14:59;;;;;;;14.75;3.15;;;;;;;20.19;55.89;102155.00;5064501;28;20079;-87
2022/06/11 07:17:32;;;;;;;14.50;3.35;;;;;;;20.35;54.97;102158.47;5067961;28;20020;-87
2022/06/11 07:20:04;;;;;;;12.45;2.63;;;;;;;20.50;55.14;102148.66;5066765;28;20032;-87
2022/06/11 07:23:06;;;;;;;10.15;3.38;;;;;;;20.63;55.62;102148.78;5063545;28;20032;-88
2022/06/11 07:25:31;;;;;;;13.70;3.63;;;;;;;20.49;54.40;102152.31;5067932;28;20040;-87
2022/06/11 07:28:02;;;;;;;10.07;2.88;;;;;;;20.53;54.74;102155.66;5067552;28;20365;-87
2022/06/11 07:30:30;;;;;;;15.88;3.97;;;;;;;20.91;54.25;102158.66;5058756;28;20020;-87
2022/06/11 07:33:01;;;;;;;14.00;3.42;;;;;;;21.12;54.86;102161.81;5075043;28;20487;-88
2022/06/11 07:35:27;;;;;;;14.00;3.65;;;;;;;21.06;54.30;102165.75;5070162;28;20031;-87
2022/06/11 07:37:53;;;;;;;15.25;3.75;;;;;;;20.95;53.62;102164.72;5066638;28;20028;-87
2022/06/11 07:40:19;;;;;;;18.20;3.63;;;;;;;20.81;54.26;102166.44;5068411;28;20037;-87
2022/06/11 07:42:45;;;;;;;16.50;3.97;;;;;;;21.16;52.67;102163.34;5067822;28;20174;-87
2022/06/11 07:45:11;;;;;;;15.48;3.83;;;;;;;21.67;53.99;102163.66;5068201;28;20020;-88
2022/06/11 07:47:55;;;;;;;19.55;3.92;;;;;;;21.99;51.19;102171.44;5062885;28;20108;-87
2022/06/11 07:50:24;;;;;;;15.10;2.85;;;;;;;22.19;50.42;102157.50;5071518;28;20544;-87
2022/06/11 07:52:50;;;;;;;14.98;3.25;;;;;;;22.25;50.22;102169.72;5063526;28;20542;-87
2022/06/11 07:55:16;;;;;;;15.25;3.30;;;;;;;22.12;50.14;102169.66;5065371;28;20046;-87
2022/06/11 07:57:42;;;;;;;9.98;2.65;;;;;;;22.40;50.19;102169.50;5066181;28;20059;-87
2022/06/11 08:00:11;;;;;;;11.90;3.13;;;;;;;22.41;50.59;102171.22;5062083;28;20033;-88
2022/06/11 08:02:36;;;;;;;12.98;3.30;;;;;;;22.14;49.25;102176.66;5067262;28;20037;-87
2022/06/11 08:05:03;;;;;;;14.38;3.00;;;;;;;22.22;50.99;102160.00;5067887;28;20544;-87
2022/06/11 08:07:29;;;;;;;13.75;4.03;;;;;;;22.59;49.51;102170.94;5063436;28;20040;-87
2022/06/11 08:09:57;;;;;;;12.65;3.38;;;;;;;22.74;48.60;102177.94;5067259;28;20062;-87
2022/06/11 08:12:23;;;;;;;12.50;3.10;;;;;;;23.01;49.52;102177.00;5067903;28;20054;-87
2022/06/11 08:14:49;;;;;;;18.05;3.75;;;;;;;22.83;48.89;102185.38;5069230;28;20851;-87
2022/06/11 08:17:14;;;;;;;11.32;3.15;;;;;;;22.56;48.79;102184.59;5069817;28;20020;-88
2022/06/11 08:19:39;;;;;;;15.23;3.70;;;;;;;22.65;49.82;102189.34;5069755;28;20033;-87
2022/06/11 08:22:05;;;;;;;15.30;4.05;;;;;;;23.79;46.06;102188.38;5067687;28;20127;-87
2022/06/11 08:24:30;;;;;;;17.42;3.50;;;;;;;23.63;47.78;102193.13;5069687;28;20024;-87
2022/06/11 08:26:55;;;;;;;15.05;3.35;;;;;;;23.08;47.37;102189.06;5064277;28;20044;-88
2022/06/11 08:29:21;;;;;;;19.23;4.20;;;;;;;22.49;48.54;102186.88;5067101;28;20077;-87
2022/06/11 08:31:46;;;;;;;18.30;3.92;;;;;;;22.57;49.23;102191.72;5064522;28;20062;-87
2022/06/11 08:34:12;;;;;;;18.25;3.83;;;;;;;22.10;49.58;102201.19;5065174;28;20780;-88
2022/06/11 08:36:37;;;;;;;14.73;3.75;;;;;;;22.08;51.24;102195.06;5058881;28;20083;-87
2022/06/11 08:39:03;;;;;;;14.00;3.45;;;;;;;22.39;48.38;102204.66;5067923;28;20025;-88
2022/06/11 08:41:33;;;;;;;14.23;3.30;;;;;;;22.12;49.27;102202.84;5056816;28;20488;-87
2022/06/11 08:44:08;;;;;;;15.85;3.17;;;;;;;22.72;48.33;102195.22;5063400;28;20479;-87
2022/06/11 08:46:36;;;;;;;18.55;4.20;;;;;;;23.10;47.46;102203.31;5057602;28;20056;-88
2022/06/11 08:49:09;;;;;;;17.55;4.10;;;;;;;22.83;47.80;102201.56;5063270;28;20523;-88
2022/06/11 08:51:53;;;;;;;16.70;3.80;;;;;;;23.72;47.76;102200.59;5069931;28;20029;-88
2022/06/11 08:54:22;;;;;;;15.32;3.60;;;;;;;24.18;45.09;102187.19;5065353;28;20038;-88
2022/06/11 08:57:02;;;;;;;17.92;3.85;;;;;;;25.04;45.32;102190.44;5064722;28;20055;-87
2022/06/11 08:59:55;;;;;;;14.57;3.60;;;;;;;25.33;43.76;102193.56;5058978;28;20033;-87
2022/06/11 09:02:42;;;;;;;17.08;4.20;;;;;;;25.41;44.71;102196.47;5066833;28;20668;-86
2022/06/11 09:05:44;;;;;;;14.93;3.72;;;;;;;25.58;43.59;102193.25;5070201;28;20039;-87
2022/06/11 09:08:18;;;;;;;16.63;3.47;;;;;;;25.09;43.02;102199.97;5064325;28;20032;-88
2022/06/11 09:11:12;;;;;;;16.67;3.72;;;;;;;24.99;45.15;102192.66;5049995;28;20110;-87
2022/06/11 09:14:10;;;;;;;18.83;3.85;;;;;;;25.18;44.12;102192.94;5055096;28;20035;-86
2022/06/11 09:17:00;;;;;;;15.02;3.45;;;;;;;25.43;42.87;102192.69;5061112;28;20395;-88
2022/06/11 09:19:47;;;;;;;11.07;3.00;;;;;;;25.67;40.25;102191.66;5070662;28;20031;-87
2022/06/11 09:22:54;;;;;;;13.57;2.70;;;;;;;25.86;42.88;102200.00;5062181;28;20475;-87
2022/06/11 09:25:47;;;;;;;13.07;3.20;;;;;;;25.40;42.72;102192.06;5059307;28;20029;-88
2022/06/11 09:28:25;;;;;;;11.75;2.90;;;;;;;25.05;42.69;102176.81;5060853;28;20023;-87
2022/06/11 09:31:10;;;;;;;12.98;3.30;;;;;;;25.18;42.08;102187.53;5069285;28;20047;-87
2022/06/11 09:33:50;;;;;;;16.08;3.33;;;;;;;24.98;42.02;102199.06;5055758;28;20040;-88
2022/06/11 09:36:38;;;;;;;14.55;3.13;;;;;;;25.01;42.53;102198.81;5059563;28;20032;-87
2022/06/11 09:39:31;;;;;;;15.55;3.80;;;;;;;24.82;43.31;102202.13;5063937;28;20033;-87
2022/06/11 09:42:12;;;;;;;12.07;3.85;;;;;;;24.93;43.05;102207.53;5066857;28;20123;-87
2022/06/11 09:44:49;;;;;;;19.25;3.80;;;;;;;24.79;42.57;102195.09;5054256;28;20078;-88
2022/06/11 09:47:23;;;;;;;15.07;4.05;;;;;;;24.26;43.75;102202.81;5060045;28;20408;-87
2022/06/11 09:50:12;;;;;;;17.50;3.95;;;;;;;23.74;45.38;102211.31;5067448;28;20028;-86
2022/06/11 09:52:56;;;;;;;13.30;3.35;;;;;;;24.14;44.44;102217.25;5072634;28;20032;-87
2022/06/11 09:55:27;;;;;;;12.02;3.47;;;;;;;24.80;43.79;102209.50;5049499;28;20044;-87
2022/06/11 09:58:30;;;;;;;16.63;4.18;;;;;;;25.48;42.31;102213.97;5065524;28;20503;-87
2022/06/11 10:01:00;;;;;;;17.98;4.60;;;;;;;25.41;39.67;102202.78;5059570;28;20043;-88
2022/06/11 10:03:40;;;;;;;15.90;4.18;;;;;;;25.00;41.89;102205.22;5063246;28;20275;-87
2022/06/11 10:06:14;;;;;;;18.48;4.32;;;;;;;25.08;42.51;102202.78;5053479;28;20094;-87
2022/06/11 10:08:54;;;;;;;15.75;4.03;;;;;;;25.17;41.65;102196.63;5065263;28;20024;-87
2022/06/11 10:11:31;;;;;;;18.60;4.15;;;;;;;25.99;41.47;102202.53;5064379;28;20029;-87
2022/06/11 10:14:28;;;;;;;13.52;3.20;;;;;;;26.39;40.02;102191.91;5061204;28;20025;-87
2022/06/11 10:16:59;;;;;;;14.40;3.70;;;;;;;26.46;39.11;102203.09;5062990;28;20028;-87
2022/06/11 10:19:32;;;;;;;16.45;4.35;;;;;;;26.27;38.25;102194.78;5079865;28;20032;-87
2022/06/11 10:22:12;;;;;;;18.33;3.92;;;;;;;26.53;39.31;102200.69;5062861;28;20398;-87
2022/06/11 10:24:42;;;;;;;15.85;4.22;;;;;;;26.84;39.21;102194.31;5067496;28;20067;-87
2022/06/11 10:27:15;;;;;;;10.90;3.22;;;;;;;27.15;39.95;102197.09;5061247;28;20464;-87
2022/06/11 10:29:48;;;;;;;10.90;2.60;;;;;;;27.26;35.79;102199.69;5062521;28;20107;-87
2022/06/11 10:32:26;;;;;;;8.23;2.40;;;;;;;27.28;36.32;102195.00;5063895;28;20046;-87
2022/06/11 10:35:12;;;;;;;9.57;2.53;;;;;;;27.62;37.20;102198.22;5065390;28;20561;-87
2022/06/11 10:37:43;;;;;;;11.45;2.72;;;;;;;27.62;35.13;102200.09;5073203;28;20032;-87
2022/06/11 10:40:30;;;;;;;14.37;2.80;;;;;;;27.74;35.77;102203.56;5056562;28;20039;-87
2022/06/11 10:43:22;;;;;;;7.38;2.47;;;;;;;27.71;36.57;102202.84;5058830;28;20115;-88
2022/06/11 10:45:49;;;;;;;10.70;2.20;;;;;;;27.83;33.33;102205.44;5058778;28;20039;-88
2022/06/11 10:48:20;;;;;;;7.95;2.22;;;;;;;27.64;33.78;102198.06;5061209;28;20396;-89
2022/06/11 10:50:47;;;;;;;11.65;2.83;;;;;;;27.61;35.49;102191.06;5061806;28;20430;-88
2022/06/11 10:53:22;;;;;;;8.15;2.47;;;;;;;27.77;35.86;102198.69;5075779;28;20082;-88
2022/06/11 10:56:00;;;;;;;12.48;2.90;;;;;;;27.73;34.66;102204.56;5063050;28;20036;-88
2022/06/11 10:58:41;;;;;;;10.95;2.90;;;;;;;27.93;35.44;102209.00;5064160;28;20550;-87
2022/06/11 11:01:14;;;;;;;10.40;2.75;;;;;;;27.99;34.97;102197.59;5063573;28;20033;-88
2022/06/11 11:03:49;;;;;;;12.95;2.83;;;;;;;28.26;35.02;102183.28;5062917;28;20029;-88
2022/06/11 11:06:35;;;;;;;12.57;2.97;;;;;;;28.19;35.02;102199.28;5067672;28;20032;-87
2022/06/11 11:09:11;;;;;;;15.13;3.42;;;;;;;28.09;35.79;102198.44;5062685;28;20055;-88
2022/06/11 11:11:44;;;;;;;13.77;3.00;;;;;;;28.33;36.23;102197.16;5069811;28;20024;-88
2022/06/11 11:14:33;;;;;;;12.88;3.70;;;;;;;28.63;36.12;102193.38;5070490;28;20475;-88
2022/06/11 11:17:05;;;;;;;20.35;4.00;;;;;;;28.38;35.27;102192.16;5063875;28;20023;-88
2022/06/11 11:19:42;;;;;;;11.85;3.38;;;;;;;28.54;35.47;102191.53;5080296;28;20040;-88
2022/06/11 11:22:15;;;;;;;10.38;2.95;;;;;;;28.42;34.44;102194.44;5067309;28;20032;-88
2022/06/11 11:24:46;;;;;;;12.77;2.88;;;;;;;28.48;33.96;102185.69;5068413;28;20968;-88
2022/06/11 11:27:22;;;;;;;13.27;3.70;;;;;;;28.14;34.48;102182.56;5063962;28;20033;-87
2022/06/11 11:29:53;;;;;;;13.85;3.47;;;;;;;28.27;34.39;102179.53;5062904;28;20507;-87
2022/06/11 11:32:35;;;;;;;14.05;3.72;;;;;;;28.34;35.25;102177.97;5066554;28;20024;-88
2022/06/11 11:35:22;;;;;;;13.55;4.05;;;;;;;28.43;35.35;102185.28;5066801;28;20052;-87
2022/06/11 11:37:58;;;;;;;11.68;3.38;;;;;;;28.71;34.18;102179.91;5067263;28;20025;-87
2022/06/11 11:40:31;;;;;;;11.88;3.33;;;;;;;28.65;35.21;102180.50;5069378;28;20033;-87
2022/06/11 11:43:01;;;;;;;13.10;3.65;;;;;;;28.81;33.66;102172.56;5066491;28;20039;-88